Terminal Aerodrome Forecast
Issued by NWS

Home | Current Version | Previous Version | Graphics & Text | Print | Product List | Glossary On
Versions: 1 2 3 4 5 6 7 8 9 10 11 12 13 14 15 16 17
000
FTUS43 KBIS 282339
TAFMOT
TAF
KMOT 282339Z 2900/2924 24033G50KT P6SM -SHRA SCT025 OVC035
      TEMPO 2900/2904 25030G50KT 3SM -SHRA SCT012 BKN020
     FM290400 27032G43KT P6SM VCSH BKN020 OVC035
     FM290700 27022G32KT P6SM BKN050 OVC070
     FM291200 28018G26KT P6SM SCT120 SCT170
     FM291500 28024G35KT P6SM SKC=

USA.gov is the U.S. government's official web portal to all federal, state and local government web resources and services.